sensor_id;sensor_type;location;lat;lon;timestamp;temperature;humidity
33827;DHT22;20128;45.582;5.298;2023-02-13T00:01:57;5.30;64.90
33827;DHT22;20128;45.582;5.298;2023-02-13T00:04:23;5.30;64.90
33827;DHT22;20128;45.582;5.298;2023-02-13T00:06:48;5.30;64.60
33827;DHT22;20128;45.582;5.298;2023-02-13T00:09:14;5.30;64.50
33827;DHT22;20128;45.582;5.298;2023-02-13T00:11:40;5.30;64.50
33827;DHT22;20128;45.582;5.298;2023-02-13T00:14:05;5.30;64.50
33827;DHT22;20128;45.582;5.298;2023-02-13T00:16:31;5.30;64.50
33827;DHT22;20128;45.582;5.298;2023-02-13T00:18:57;5.30;64.30
33827;DHT22;20128;45.582;5.298;2023-02-13T00:21:23;5.20;64.50
33827;DHT22;20128;45.582;5.298;2023-02-13T00:23:48;5.20;64.40
33827;DHT22;20128;45.582;5.298;2023-02-13T00:26:15;5.10;64.60
33827;DHT22;20128;45.582;5.298;2023-02-13T00:28:41;4.90;64.70
33827;DHT22;20128;45.582;5.298;2023-02-13T00:31:15;4.90;65.10
33827;DHT22;20128;45.582;5.298;2023-02-13T00:33:42;4.80;65.00
33827;DHT22;20128;45.582;5.298;2023-02-13T00:36:10;4.80;65.30
33827;DHT22;20128;45.582;5.298;2023-02-13T00:38:37;4.80;65.50
33827;DHT22;20128;45.582;5.298;2023-02-13T00:41:04;4.70;65.70
33827;DHT22;20128;45.582;5.298;2023-02-13T00:43:30;4.60;65.70
33827;DHT22;20128;45.582;5.298;2023-02-13T00:45:56;4.60;66.00
33827;DHT22;20128;45.582;5.298;2023-02-13T00:48:26;4.70;65.80
33827;DHT22;20128;45.582;5.298;2023-02-13T00:50:51;4.60;65.80
33827;DHT22;20128;45.582;5.298;2023-02-13T00:53:18;4.70;65.90
33827;DHT22;20128;45.582;5.298;2023-02-13T00:55:44;4.60;65.80
33827;DHT22;20128;45.582;5.298;2023-02-13T00:58:09;4.60;65.80
33827;DHT22;20128;45.582;5.298;2023-02-13T01:00:36;4.60;65.70
33827;DHT22;20128;45.582;5.298;2023-02-13T01:03:01;4.60;65.80
33827;DHT22;20128;45.582;5.298;2023-02-13T01:05:27;4.60;65.80
33827;DHT22;20128;45.582;5.298;2023-02-13T01:07:53;4.50;65.90
33827;DHT22;20128;45.582;5.298;2023-02-13T01:10:19;4.40;66.10
33827;DHT22;20128;45.582;5.298;2023-02-13T01:12:45;4.40;66.30
33827;DHT22;20128;45.582;5.298;2023-02-13T01:15:10;4.30;66.40
33827;DHT22;20128;45.582;5.298;2023-02-13T01:17:36;4.30;66.90
33827;DHT22;20128;45.582;5.298;2023-02-13T01:20:05;4.20;67.10
33827;DHT22;20128;45.582;5.298;2023-02-13T01:22:32;4.20;67.20
33827;DHT22;20128;45.582;5.298;2023-02-13T01:25:00;4.30;67.10
33827;DHT22;20128;45.582;5.298;2023-02-13T01:27:28;4.30;67.10
33827;DHT22;20128;45.582;5.298;2023-02-13T01:29:54;4.20;67.00
33827;DHT22;20128;45.582;5.298;2023-02-13T01:32:20;4.20;67.10
33827;DHT22;20128;45.582;5.298;2023-02-13T01:34:46;4.20;67.30
33827;DHT22;20128;45.582;5.298;2023-02-13T01:37:12;4.20;67.30
33827;DHT22;20128;45.582;5.298;2023-02-13T01:39:37;4.20;67.50
33827;DHT22;20128;45.582;5.298;2023-02-13T01:42:04;4.20;68.00
33827;DHT22;20128;45.582;5.298;2023-02-13T01:44:52;4.20;67.90
33827;DHT22;20128;45.582;5.298;2023-02-13T01:51:06;4.20;68.00
33827;DHT22;20128;45.582;5.298;2023-02-13T01:53:05;4.20;68.00
33827;DHT22;20128;45.582;5.298;2023-02-13T01:55:32;4.10;68.20
33827;DHT22;20128;45.582;5.298;2023-02-13T01:58:07;4.10;68.20
33827;DHT22;20128;45.582;5.298;2023-02-13T02:00:34;4.00;68.20
33827;DHT22;20128;45.582;5.298;2023-02-13T02:03:06;4.00;68.20
33827;DHT22;20128;45.582;5.298;2023-02-13T02:05:35;4.00;68.40
33827;DHT22;20128;45.582;5.298;2023-02-13T02:08:02;4.00;68.40
33827;DHT22;20128;45.582;5.298;2023-02-13T02:10:30;4.00;68.40
33827;DHT22;20128;45.582;5.298;2023-02-13T02:13:12;3.90;68.40
33827;DHT22;20128;45.582;5.298;2023-02-13T02:15:40;4.00;68.40
33827;DHT22;20128;45.582;5.298;2023-02-13T02:18:13;3.90;68.50
33827;DHT22;20128;45.582;5.298;2023-02-13T02:29:15;3.80;69.00
33827;DHT22;20128;45.582;5.298;2023-02-13T02:39:57;3.90;69.20
33827;DHT22;20128;45.582;5.298;2023-02-13T02:42:35;3.90;69.10
33827;DHT22;20128;45.582;5.298;2023-02-13T02:51:26;3.80;69.50
33827;DHT22;20128;45.582;5.298;2023-02-13T02:54:09;3.80;69.50
33827;DHT22;20128;45.582;5.298;2023-02-13T02:57:00;3.70;69.50
33827;DHT22;20128;45.582;5.298;2023-02-13T02:59:29;3.70;69.60
33827;DHT22;20128;45.582;5.298;2023-02-13T03:02:15;3.60;69.50
33827;DHT22;20128;45.582;5.298;2023-02-13T03:05:00;3.50;69.80
33827;DHT22;20128;45.582;5.298;2023-02-13T03:07:45;3.40;70.00
33827;DHT22;20128;45.582;5.298;2023-02-13T03:10:24;3.40;70.10
33827;DHT22;20128;45.582;5.298;2023-02-13T03:13:27;3.30;70.20
33827;DHT22;20128;45.582;5.298;2023-02-13T03:15:57;3.30;70.30
33827;DHT22;20128;45.582;5.298;2023-02-13T03:18:46;3.40;70.20
33827;DHT22;20128;45.582;5.298;2023-02-13T03:21:58;3.40;69.90
33827;DHT22;20128;45.582;5.298;2023-02-13T03:25:01;3.50;69.70
33827;DHT22;20128;45.582;5.298;2023-02-13T03:35:56;3.50;69.60
33827;DHT22;20128;45.582;5.298;2023-02-13T03:44:21;3.50;69.50
33827;DHT22;20128;45.582;5.298;2023-02-13T03:46:50;3.50;69.40
33827;DHT22;20128;45.582;5.298;2023-02-13T03:49:30;3.50;69.30
33827;DHT22;20128;45.582;5.298;2023-02-13T03:55:07;3.50;69.50
33827;DHT22;20128;45.582;5.298;2023-02-13T03:57:57;3.60;69.40
33827;DHT22;20128;45.582;5.298;2023-02-13T04:00:46;3.70;69.20
33827;DHT22;20128;45.582;5.298;2023-02-13T04:03:26;3.70;69.10
33827;DHT22;20128;45.582;5.298;2023-02-13T04:06:03;3.80;68.80
33827;DHT22;20128;45.582;5.298;2023-02-13T04:08:30;3.80;68.50
33827;DHT22;20128;45.582;5.298;2023-02-13T04:13:34;3.80;68.40
33827;DHT22;20128;45.582;5.298;2023-02-13T04:16:20;3.80;68.80
33827;DHT22;20128;45.582;5.298;2023-02-13T04:18:48;3.80;68.30
33827;DHT22;20128;45.582;5.298;2023-02-13T04:21:16;3.80;68.10
33827;DHT22;20128;45.582;5.298;2023-02-13T04:23:41;3.70;68.10
33827;DHT22;20128;45.582;5.298;2023-02-13T04:26:14;3.70;68.30
33827;DHT22;20128;45.582;5.298;2023-02-13T04:28:40;3.60;68.30
33827;DHT22;20128;45.582;5.298;2023-02-13T04:31:06;3.50;68.50
33827;DHT22;20128;45.582;5.298;2023-02-13T04:33:32;3.50;68.70
33827;DHT22;20128;45.582;5.298;2023-02-13T04:35:57;3.40;68.80
33827;DHT22;20128;45.582;5.298;2023-02-13T04:38:23;3.40;69.00
33827;DHT22;20128;45.582;5.298;2023-02-13T04:40:48;3.40;69.00
33827;DHT22;20128;45.582;5.298;2023-02-13T04:43:14;3.50;69.00
33827;DHT22;20128;45.582;5.298;2023-02-13T04:45:40;3.50;68.70
33827;DHT22;20128;45.582;5.298;2023-02-13T04:48:05;3.50;68.50
33827;DHT22;20128;45.582;5.298;2023-02-13T04:50:31;3.50;68.80
33827;DHT22;20128;45.582;5.298;2023-02-13T04:52:57;3.50;69.00
33827;DHT22;20128;45.582;5.298;2023-02-13T04:55:24;3.50;68.90
33827;DHT22;20128;45.582;5.298;2023-02-13T04:57:54;3.50;69.00
33827;DHT22;20128;45.582;5.298;2023-02-13T05:00:21;3.50;69.20
33827;DHT22;20128;45.582;5.298;2023-02-13T05:02:47;3.50;69.30
33827;DHT22;20128;45.582;5.298;2023-02-13T05:05:13;3.60;69.30
33827;DHT22;20128;45.582;5.298;2023-02-13T05:07:40;3.60;69.20
33827;DHT22;20128;45.582;5.298;2023-02-13T05:10:07;3.60;69.10
33827;DHT22;20128;45.582;5.298;2023-02-13T05:12:33;3.60;69.10
33827;DHT22;20128;45.582;5.298;2023-02-13T05:14:58;3.70;69.00
33827;DHT22;20128;45.582;5.298;2023-02-13T05:17:24;3.70;68.80
33827;DHT22;20128;45.582;5.298;2023-02-13T05:19:50;3.70;68.80
33827;DHT22;20128;45.582;5.298;2023-02-13T05:22:15;3.70;68.60
33827;DHT22;20128;45.582;5.298;2023-02-13T05:25:00;3.70;68.60
33827;DHT22;20128;45.582;5.298;2023-02-13T05:27:25;3.60;68.80
33827;DHT22;20128;45.582;5.298;2023-02-13T05:29:51;3.60;68.90
33827;DHT22;20128;45.582;5.298;2023-02-13T05:32:17;3.50;68.90
33827;DHT22;20128;45.582;5.298;2023-02-13T05:34:42;3.40;69.00
33827;DHT22;20128;45.582;5.298;2023-02-13T05:37:08;3.30;69.30
33827;DHT22;20128;45.582;5.298;2023-02-13T05:39:34;3.30;69.50
33827;DHT22;20128;45.582;5.298;2023-02-13T05:41:59;3.40;69.60
33827;DHT22;20128;45.582;5.298;2023-02-13T05:44:25;3.40;69.40
33827;DHT22;20128;45.582;5.298;2023-02-13T05:46:50;3.40;69.30
33827;DHT22;20128;45.582;5.298;2023-02-13T05:49:17;3.40;69.40
33827;DHT22;20128;45.582;5.298;2023-02-13T05:51:43;3.30;69.50
33827;DHT22;20128;45.582;5.298;2023-02-13T05:54:11;3.30;69.50
33827;DHT22;20128;45.582;5.298;2023-02-13T05:56:36;3.30;69.50
33827;DHT22;20128;45.582;5.298;2023-02-13T05:59:03;3.30;69.60
33827;DHT22;20128;45.582;5.298;2023-02-13T06:01:28;3.20;69.60
33827;DHT22;20128;45.582;5.298;2023-02-13T06:03:54;3.20;69.80
33827;DHT22;20128;45.582;5.298;2023-02-13T06:06:20;3.10;69.90
33827;DHT22;20128;45.582;5.298;2023-02-13T06:08:47;3.00;70.10
33827;DHT22;20128;45.582;5.298;2023-02-13T06:11:13;3.00;70.30
33827;DHT22;20128;45.582;5.298;2023-02-13T06:13:38;3.00;71.00
33827;DHT22;20128;45.582;5.298;2023-02-13T06:16:09;3.10;70.40
33827;DHT22;20128;45.582;5.298;2023-02-13T06:18:35;3.20;70.20
33827;DHT22;20128;45.582;5.298;2023-02-13T06:21:01;3.20;70.10
33827;DHT22;20128;45.582;5.298;2023-02-13T06:23:27;3.30;69.90
33827;DHT22;20128;45.582;5.298;2023-02-13T06:25:53;3.40;69.60
33827;DHT22;20128;45.582;5.298;2023-02-13T06:28:19;3.30;69.50
33827;DHT22;20128;45.582;5.298;2023-02-13T06:30:45;3.20;69.60
33827;DHT22;20128;45.582;5.298;2023-02-13T06:33:10;3.20;69.70
33827;DHT22;20128;45.582;5.298;2023-02-13T06:35:36;3.10;69.60
33827;DHT22;20128;45.582;5.298;2023-02-13T06:38:02;3.10;69.60
33827;DHT22;20128;45.582;5.298;2023-02-13T06:40:27;3.10;69.80
33827;DHT22;20128;45.582;5.298;2023-02-13T06:42:53;3.20;69.80
33827;DHT22;20128;45.582;5.298;2023-02-13T06:45:19;3.20;69.70
33827;DHT22;20128;45.582;5.298;2023-02-13T06:47:46;3.20;69.70
33827;DHT22;20128;45.582;5.298;2023-02-13T06:50:13;3.20;69.70
33827;DHT22;20128;45.582;5.298;2023-02-13T06:52:44;3.20;69.90
33827;DHT22;20128;45.582;5.298;2023-02-13T06:55:10;3.20;70.00
33827;DHT22;20128;45.582;5.298;2023-02-13T06:57:35;3.20;69.90
33827;DHT22;20128;45.582;5.298;2023-02-13T07:00:01;3.30;69.90
33827;DHT22;20128;45.582;5.298;2023-02-13T07:02:31;3.30;69.90
33827;DHT22;20128;45.582;5.298;2023-02-13T07:04:56;3.30;69.80
33827;DHT22;20128;45.582;5.298;2023-02-13T07:07:22;3.30;69.90
33827;DHT22;20128;45.582;5.298;2023-02-13T07:09:48;3.30;70.00
33827;DHT22;20128;45.582;5.298;2023-02-13T07:12:13;3.30;70.00
33827;DHT22;20128;45.582;5.298;2023-02-13T07:14:39;3.30;70.10
33827;DHT22;20128;45.582;5.298;2023-02-13T07:17:05;3.30;70.20
33827;DHT22;20128;45.582;5.298;2023-02-13T07:19:31;3.40;70.30
33827;DHT22;20128;45.582;5.298;2023-02-13T07:21:57;3.40;70.30
33827;DHT22;20128;45.582;5.298;2023-02-13T07:24:23;3.40;70.30
33827;DHT22;20128;45.582;5.298;2023-02-13T07:26:48;3.40;70.30
33827;DHT22;20128;45.582;5.298;2023-02-13T07:29:14;3.40;70.40
33827;DHT22;20128;45.582;5.298;2023-02-13T07:31:40;3.40;70.50
33827;DHT22;20128;45.582;5.298;2023-02-13T07:34:06;3.40;70.30
33827;DHT22;20128;45.582;5.298;2023-02-13T07:36:32;3.40;70.30
33827;DHT22;20128;45.582;5.298;2023-02-13T07:38:58;3.40;70.50
33827;DHT22;20128;45.582;5.298;2023-02-13T07:41:23;3.40;70.70
33827;DHT22;20128;45.582;5.298;2023-02-13T07:43:52;3.40;70.80
33827;DHT22;20128;45.582;5.298;2023-02-13T07:46:18;3.40;71.00
33827;DHT22;20128;45.582;5.298;2023-02-13T07:48:44;3.50;71.10
33827;DHT22;20128;45.582;5.298;2023-02-13T07:51:09;3.50;71.20
33827;DHT22;20128;45.582;5.298;2023-02-13T07:53:35;3.60;71.40
33827;DHT22;20128;45.582;5.298;2023-02-13T07:56:08;3.60;71.50
33827;DHT22;20128;45.582;5.298;2023-02-13T07:58:36;3.70;71.60
33827;DHT22;20128;45.582;5.298;2023-02-13T08:01:09;3.80;71.60
33827;DHT22;20128;45.582;5.298;2023-02-13T08:03:35;3.80;71.60
33827;DHT22;20128;45.582;5.298;2023-02-13T08:06:01;3.80;71.60
33827;DHT22;20128;45.582;5.298;2023-02-13T08:08:27;3.90;72.10
33827;DHT22;20128;45.582;5.298;2023-02-13T08:10:53;3.90;72.00
33827;DHT22;20128;45.582;5.298;2023-02-13T08:13:38;3.90;72.20
33827;DHT22;20128;45.582;5.298;2023-02-13T08:16:04;3.90;72.30
33827;DHT22;20128;45.582;5.298;2023-02-13T08:18:30;4.00;72.70
33827;DHT22;20128;45.582;5.298;2023-02-13T08:20:55;4.00;73.30
33827;DHT22;20128;45.582;5.298;2023-02-13T08:23:21;4.10;73.00
33827;DHT22;20128;45.582;5.298;2023-02-13T08:25:47;4.20;73.60
33827;DHT22;20128;45.582;5.298;2023-02-13T08:28:15;4.20;73.60
33827;DHT22;20128;45.582;5.298;2023-02-13T08:30:41;4.40;73.80
33827;DHT22;20128;45.582;5.298;2023-02-13T08:33:07;4.50;73.80
33827;DHT22;20128;45.582;5.298;2023-02-13T08:35:32;4.60;73.60
33827;DHT22;20128;45.582;5.298;2023-02-13T08:38:03;4.70;73.30
33827;DHT22;20128;45.582;5.298;2023-02-13T08:40:29;4.90;73.10
33827;DHT22;20128;45.582;5.298;2023-02-13T08:43:02;5.00;73.00
33827;DHT22;20128;45.582;5.298;2023-02-13T08:45:29;5.10;72.70
33827;DHT22;20128;45.582;5.298;2023-02-13T08:47:56;5.30;72.60
33827;DHT22;20128;45.582;5.298;2023-02-13T08:50:22;5.40;72.20
33827;DHT22;20128;45.582;5.298;2023-02-13T08:52:48;5.50;71.70
33827;DHT22;20128;45.582;5.298;2023-02-13T08:55:14;5.70;71.40
33827;DHT22;20128;45.582;5.298;2023-02-13T08:57:39;5.80;71.20
33827;DHT22;20128;45.582;5.298;2023-02-13T09:00:05;5.90;70.80
33827;DHT22;20128;45.582;5.298;2023-02-13T09:02:31;6.00;70.40
33827;DHT22;20128;45.582;5.298;2023-02-13T09:04:57;6.20;70.00
33827;DHT22;20128;45.582;5.298;2023-02-13T09:07:22;6.30;69.40
33827;DHT22;20128;45.582;5.298;2023-02-13T09:09:48;6.50;69.30
33827;DHT22;20128;45.582;5.298;2023-02-13T09:12:14;6.60;69.00
33827;DHT22;20128;45.582;5.298;2023-02-13T09:14:40;6.70;68.40
33827;DHT22;20128;45.582;5.298;2023-02-13T09:17:05;6.90;67.90
33827;DHT22;20128;45.582;5.298;2023-02-13T09:19:31;7.00;67.90
33827;DHT22;20128;45.582;5.298;2023-02-13T09:21:56;7.20;67.30
33827;DHT22;20128;45.582;5.298;2023-02-13T09:24:22;7.30;67.30
33827;DHT22;20128;45.582;5.298;2023-02-13T09:26:48;7.40;66.40
33827;DHT22;20128;45.582;5.298;2023-02-13T09:29:13;7.60;66.20
33827;DHT22;20128;45.582;5.298;2023-02-13T09:31:39;7.80;66.30
33827;DHT22;20128;45.582;5.298;2023-02-13T09:34:05;7.90;65.80
33827;DHT22;20128;45.582;5.298;2023-02-13T09:36:30;8.10;65.50
33827;DHT22;20128;45.582;5.298;2023-02-13T09:38:57;8.30;64.30
33827;DHT22;20128;45.582;5.298;2023-02-13T09:41:28;8.40;64.30
33827;DHT22;20128;45.582;5.298;2023-02-13T09:43:59;8.60;64.00
33827;DHT22;20128;45.582;5.298;2023-02-13T09:46:34;8.70;63.40
33827;DHT22;20128;45.582;5.298;2023-02-13T09:49:06;8.90;62.60
33827;DHT22;20128;45.582;5.298;2023-02-13T09:51:32;9.10;62.00
33827;DHT22;20128;45.582;5.298;2023-02-13T09:54:02;9.20;61.80
33827;DHT22;20128;45.582;5.298;2023-02-13T09:59:39;9.60;61.30
33827;DHT22;20128;45.582;5.298;2023-02-13T10:05:10;9.90;60.00
33827;DHT22;20128;45.582;5.298;2023-02-13T10:18:37;10.70;60.00
33827;DHT22;20128;45.582;5.298;2023-02-13T10:21:06;10.80;59.80
33827;DHT22;20128;45.582;5.298;2023-02-13T10:23:50;10.80;60.10
33827;DHT22;20128;45.582;5.298;2023-02-13T10:26:20;11.00;60.40
33827;DHT22;20128;45.582;5.298;2023-02-13T10:29:02;11.10;60.70
33827;DHT22;20128;45.582;5.298;2023-02-13T10:31:48;11.30;59.70
33827;DHT22;20128;45.582;5.298;2023-02-13T10:34:17;11.40;59.70
33827;DHT22;20128;45.582;5.298;2023-02-13T10:36:46;11.50;59.20
33827;DHT22;20128;45.582;5.298;2023-02-13T10:39:26;11.70;59.30
33827;DHT22;20128;45.582;5.298;2023-02-13T10:44:55;12.00;58.20
33827;DHT22;20128;45.582;5.298;2023-02-13T10:58:44;12.90;56.30
33827;DHT22;20128;45.582;5.298;2023-02-13T11:03:41;13.20;56.60
33827;DHT22;20128;45.582;5.298;2023-02-13T11:06:11;13.40;56.60
33827;DHT22;20128;45.582;5.298;2023-02-13T11:08:43;13.50;56.20
33827;DHT22;20128;45.582;5.298;2023-02-13T11:19:48;13.70;53.60
33827;DHT22;20128;45.582;5.298;2023-02-13T11:22:38;13.60;53.30
33827;DHT22;20128;45.582;5.298;2023-02-13T11:25:24;13.70;54.10
33827;DHT22;20128;45.582;5.298;2023-02-13T11:28:09;13.70;53.50
33827;DHT22;20128;45.582;5.298;2023-02-13T11:30:36;13.70;52.90
33827;DHT22;20128;45.582;5.298;2023-02-13T11:33:26;13.60;53.60
33827;DHT22;20128;45.582;5.298;2023-02-13T11:36:07;13.70;53.80
33827;DHT22;20128;45.582;5.298;2023-02-13T11:38:33;13.70;53.10
33827;DHT22;20128;45.582;5.298;2023-02-13T11:41:14;13.70;54.00
33827;DHT22;20128;45.582;5.298;2023-02-13T11:43:52;13.80;54.20
33827;DHT22;20128;45.582;5.298;2023-02-13T11:46:23;13.80;53.10
33827;DHT22;20128;45.582;5.298;2023-02-13T11:57:43;13.50;52.90
33827;DHT22;20128;45.582;5.298;2023-02-13T11:59:45;13.50;53.50
33827;DHT22;20128;45.582;5.298;2023-02-13T12:04:48;13.60;53.40
33827;DHT22;20128;45.582;5.298;2023-02-13T12:07:27;13.60;53.00
33827;DHT22;20128;45.582;5.298;2023-02-13T12:10:02;13.70;51.20
33827;DHT22;20128;45.582;5.298;2023-02-13T12:13:14;13.70;51.20
33827;DHT22;20128;45.582;5.298;2023-02-13T12:15:52;13.80;48.40
33827;DHT22;20128;45.582;5.298;2023-02-13T12:18:26;14.00;46.80
33827;DHT22;20128;45.582;5.298;2023-02-13T12:32:24;14.50;42.10
33827;DHT22;20128;45.582;5.298;2023-02-13T12:38:15;14.50;42.30
33827;DHT22;20128;45.582;5.298;2023-02-13T12:46:43;14.70;41.90
33827;DHT22;20128;45.582;5.298;2023-02-13T13:00:09;14.90;41.80
33827;DHT22;20128;45.582;5.298;2023-02-13T13:06:03;14.90;40.60
33827;DHT22;20128;45.582;5.298;2023-02-13T13:12:01;15.00;41.20
33827;DHT22;20128;45.582;5.298;2023-02-13T13:14:51;15.00;41.50
33827;DHT22;20128;45.582;5.298;2023-02-13T13:20:02;15.10;40.80
33827;DHT22;20128;45.582;5.298;2023-02-13T13:25:24;15.20;41.30
33827;DHT22;20128;45.582;5.298;2023-02-13T13:27:58;15.20;41.60
33827;DHT22;20128;45.582;5.298;2023-02-13T13:30:34;15.20;42.10
33827;DHT22;20128;45.582;5.298;2023-02-13T13:33:05;15.30;42.20
33827;DHT22;20128;45.582;5.298;2023-02-13T13:35:37;15.30;42.10
33827;DHT22;20128;45.582;5.298;2023-02-13T13:38:14;15.30;41.90
33827;DHT22;20128;45.582;5.298;2023-02-13T13:40:57;15.30;41.90
33827;DHT22;20128;45.582;5.298;2023-02-13T13:51:35;15.50;42.60
33827;DHT22;20128;45.582;5.298;2023-02-13T14:07:40;15.60;40.80
33827;DHT22;20128;45.582;5.298;2023-02-13T14:20:53;15.70;41.70
33827;DHT22;20128;45.582;5.298;2023-02-13T14:31:32;15.90;39.20
33827;DHT22;20128;45.582;5.298;2023-02-13T14:36:32;16.00;39.80
33827;DHT22;20128;45.582;5.298;2023-02-13T14:39:16;16.10;39.30
33827;DHT22;20128;45.582;5.298;2023-02-13T14:44:25;16.10;37.60
33827;DHT22;20128;45.582;5.298;2023-02-13T14:46:56;16.10;37.40
33827;DHT22;20128;45.582;5.298;2023-02-13T14:49:26;16.10;37.30
33827;DHT22;20128;45.582;5.298;2023-02-13T14:54:51;16.00;36.80
33827;DHT22;20128;45.582;5.298;2023-02-13T14:57:21;16.00;37.40
33827;DHT22;20128;45.582;5.298;2023-02-13T15:00:04;15.90;38.20
33827;DHT22;20128;45.582;5.298;2023-02-13T15:02:45;15.80;38.00
33827;DHT22;20128;45.582;5.298;2023-02-13T15:05:14;15.70;39.10
33827;DHT22;20128;45.582;5.298;2023-02-13T15:07:46;15.60;40.10
33827;DHT22;20128;45.582;5.298;2023-02-13T15:12:59;15.50;41.30
33827;DHT22;20128;45.582;5.298;2023-02-13T15:15:30;15.40;41.40
33827;DHT22;20128;45.582;5.298;2023-02-13T15:18:06;15.30;41.50
33827;DHT22;20128;45.582;5.298;2023-02-13T15:20:41;15.30;40.40
33827;DHT22;20128;45.582;5.298;2023-02-13T15:23:21;15.20;41.80
33827;DHT22;20128;45.582;5.298;2023-02-13T15:25:55;15.10;39.50
33827;DHT22;20128;45.582;5.298;2023-02-13T15:28:23;15.00;38.90
33827;DHT22;20128;45.582;5.298;2023-02-13T15:31:00;15.00;40.30
33827;DHT22;20128;45.582;5.298;2023-02-13T15:33:30;14.90;40.60
33827;DHT22;20128;45.582;5.298;2023-02-13T15:36:01;14.80;41.50
33827;DHT22;20128;45.582;5.298;2023-02-13T15:38:31;14.70;41.60
33827;DHT22;20128;45.582;5.298;2023-02-13T15:41:10;14.60;41.70
33827;DHT22;20128;45.582;5.298;2023-02-13T15:43:39;14.60;42.50
33827;DHT22;20128;45.582;5.298;2023-02-13T15:46:30;14.50;43.10
33827;DHT22;20128;45.582;5.298;2023-02-13T15:49:05;14.40;43.70
33827;DHT22;20128;45.582;5.298;2023-02-13T15:51:32;14.40;44.00
33827;DHT22;20128;45.582;5.298;2023-02-13T15:54:06;14.30;44.40
33827;DHT22;20128;45.582;5.298;2023-02-13T15:56:32;14.20;44.40
33827;DHT22;20128;45.582;5.298;2023-02-13T15:58:59;14.20;44.70
33827;DHT22;20128;45.582;5.298;2023-02-13T16:01:26;14.10;45.00
33827;DHT22;20128;45.582;5.298;2023-02-13T16:04:07;14.00;45.20
33827;DHT22;20128;45.582;5.298;2023-02-13T16:06:34;14.00;45.40
33827;DHT22;20128;45.582;5.298;2023-02-13T16:09:01;13.90;45.90
33827;DHT22;20128;45.582;5.298;2023-02-13T16:11:40;13.90;46.00
33827;DHT22;20128;45.582;5.298;2023-02-13T16:14:20;13.80;46.10
33827;DHT22;20128;45.582;5.298;2023-02-13T16:16:59;13.80;45.40
33827;DHT22;20128;45.582;5.298;2023-02-13T16:19:41;13.70;45.10
33827;DHT22;20128;45.582;5.298;2023-02-13T16:22:16;13.70;45.40
33827;DHT22;20128;45.582;5.298;2023-02-13T16:24:52;13.70;46.00
33827;DHT22;20128;45.582;5.298;2023-02-13T16:27:21;13.70;46.30
33827;DHT22;20128;45.582;5.298;2023-02-13T16:29:55;13.60;46.70
33827;DHT22;20128;45.582;5.298;2023-02-13T16:32:31;13.50;47.00
33827;DHT22;20128;45.582;5.298;2023-02-13T16:35:16;13.50;47.40
33827;DHT22;20128;45.582;5.298;2023-02-13T16:37:50;13.50;47.50
33827;DHT22;20128;45.582;5.298;2023-02-13T16:40:33;13.40;47.70
33827;DHT22;20128;45.582;5.298;2023-02-13T16:59:24;13.10;47.70
33827;DHT22;20128;45.582;5.298;2023-02-13T17:04:35;13.10;47.30
33827;DHT22;20128;45.582;5.298;2023-02-13T17:07:04;13.10;47.60
33827;DHT22;20128;45.582;5.298;2023-02-13T17:09:29;13.00;47.90
33827;DHT22;20128;45.582;5.298;2023-02-13T17:11:55;12.90;48.30
33827;DHT22;20128;45.582;5.298;2023-02-13T17:14:21;12.90;48.60
33827;DHT22;20128;45.582;5.298;2023-02-13T17:16:47;12.80;48.80
33827;DHT22;20128;45.582;5.298;2023-02-13T17:19:13;12.70;48.90
33827;DHT22;20128;45.582;5.298;2023-02-13T17:21:39;12.70;49.00
33827;DHT22;20128;45.582;5.298;2023-02-13T17:24:05;12.70;48.80
33827;DHT22;20128;45.582;5.298;2023-02-13T17:26:32;12.70;48.90
33827;DHT22;20128;45.582;5.298;2023-02-13T17:28:58;12.60;49.30
33827;DHT22;20128;45.582;5.298;2023-02-13T17:31:23;12.60;49.40
33827;DHT22;20128;45.582;5.298;2023-02-13T17:33:49;12.60;49.50
33827;DHT22;20128;45.582;5.298;2023-02-13T17:36:15;12.50;49.50
33827;DHT22;20128;45.582;5.298;2023-02-13T17:38:40;12.40;49.40
33827;DHT22;20128;45.582;5.298;2023-02-13T17:41:13;12.40;49.50
33827;DHT22;20128;45.582;5.298;2023-02-13T17:43:39;12.30;49.60
33827;DHT22;20128;45.582;5.298;2023-02-13T17:46:05;12.30;49.80
33827;DHT22;20128;45.582;5.298;2023-02-13T17:48:31;12.30;50.50
33827;DHT22;20128;45.582;5.298;2023-02-13T17:50:57;12.30;50.10
33827;DHT22;20128;45.582;5.298;2023-02-13T17:53:23;12.30;50.10
33827;DHT22;20128;45.582;5.298;2023-02-13T17:55:50;12.30;50.70
33827;DHT22;20128;45.582;5.298;2023-02-13T17:58:15;12.30;50.20
33827;DHT22;20128;45.582;5.298;2023-02-13T18:00:41;12.30;50.20
33827;DHT22;20128;45.582;5.298;2023-02-13T18:03:07;12.20;50.30
33827;DHT22;20128;45.582;5.298;2023-02-13T18:05:32;12.20;50.40
33827;DHT22;20128;45.582;5.298;2023-02-13T18:07:59;12.20;50.40
33827;DHT22;20128;45.582;5.298;2023-02-13T18:10:28;12.10;50.50
33827;DHT22;20128;45.582;5.298;2023-02-13T18:12:55;12.00;50.60
33827;DHT22;20128;45.582;5.298;2023-02-13T18:15:22;11.90;50.80
33827;DHT22;20128;45.582;5.298;2023-02-13T18:17:48;11.90;50.80
33827;DHT22;20128;45.582;5.298;2023-02-13T18:20:17;11.80;51.00
33827;DHT22;20128;45.582;5.298;2023-02-13T18:22:43;11.80;51.10
33827;DHT22;20128;45.582;5.298;2023-02-13T18:25:09;11.80;51.30
33827;DHT22;20128;45.582;5.298;2023-02-13T18:27:37;11.70;51.40
33827;DHT22;20128;45.582;5.298;2023-02-13T18:30:13;11.70;51.40
33827;DHT22;20128;45.582;5.298;2023-02-13T18:32:41;11.70;51.50
33827;DHT22;20128;45.582;5.298;2023-02-13T18:35:07;11.60;51.50
33827;DHT22;20128;45.582;5.298;2023-02-13T18:37:36;11.50;51.40
33827;DHT22;20128;45.582;5.298;2023-02-13T18:40:14;11.50;51.50
33827;DHT22;20128;45.582;5.298;2023-02-13T18:42:48;11.50;51.70
33827;DHT22;20128;45.582;5.298;2023-02-13T18:45:14;11.40;51.90
33827;DHT22;20128;45.582;5.298;2023-02-13T18:47:40;11.40;51.90
33827;DHT22;20128;45.582;5.298;2023-02-13T18:50:14;11.30;52.10
33827;DHT22;20128;45.582;5.298;2023-02-13T18:52:39;11.20;52.30
33827;DHT22;20128;45.582;5.298;2023-02-13T18:55:05;11.20;52.30
33827;DHT22;20128;45.582;5.298;2023-02-13T18:57:34;11.10;52.50
33827;DHT22;20128;45.582;5.298;2023-02-13T19:00:06;11.20;52.60
33827;DHT22;20128;45.582;5.298;2023-02-13T19:02:31;11.10;52.70
33827;DHT22;20128;45.582;5.298;2023-02-13T19:04:57;11.10;52.50
33827;DHT22;20128;45.582;5.298;2023-02-13T19:07:23;11.10;52.60
33827;DHT22;20128;45.582;5.298;2023-02-13T19:09:49;11.10;52.40
33827;DHT22;20128;45.582;5.298;2023-02-13T19:12:23;11.10;52.60
33827;DHT22;20128;45.582;5.298;2023-02-13T19:14:49;11.10;52.60
33827;DHT22;20128;45.582;5.298;2023-02-13T19:17:14;11.10;52.60
33827;DHT22;20128;45.582;5.298;2023-02-13T19:19:46;11.00;52.70
33827;DHT22;20128;45.582;5.298;2023-02-13T19:22:13;11.00;52.70
33827;DHT22;20128;45.582;5.298;2023-02-13T19:24:39;10.90;52.90
33827;DHT22;20128;45.582;5.298;2023-02-13T19:27:06;10.80;53.20
33827;DHT22;20128;45.582;5.298;2023-02-13T19:29:31;10.80;53.50
33827;DHT22;20128;45.582;5.298;2023-02-13T19:31:59;10.80;53.40